Time;durP1;ratioP1;P1;durP2;ratioP2;P2;SDS_P1;SDS_P2;PMS_P1;PMS_P2;Temp;Humidity;BMP_temperature;BMP_pressure;BME280_temperature;BME280_humidity;BME280_pressure;Samples;Min_cycle;Max_cycle;Signal;HPM_P1;HPM_P2
2023/08/30 00:00:25;;;;;;;;;;;24.40;50.10;;;;;;3054972;19;5135;-83
2023/08/30 00:01:26;;;;;;;;;;;24.40;50.20;;;;;;3055627;19;5303;-80
2023/08/30 00:02:26;;;;;;;;;;;24.40;50.20;;;;;;3055613;19;4603;-79
2023/08/30 00:03:27;;;;;;;;;;;24.40;50.20;;;;;;3055469;19;4744;-83
2023/08/30 00:04:28;;;;;;;;;;;25.20;50.70;;;;;;3034162;19;4581;-79
2023/08/30 00:05:29;;;;;;;;;;;24.40;50.30;;;;;;3056050;19;5133;-81
2023/08/30 00:06:31;;;;;;;;;;;24.40;50.30;;;;;;3056640;19;4805;-87
2023/08/30 00:07:32;;;;;;;;;;;24.40;50.20;;;;;;3056682;19;4610;-79
2023/08/30 00:08:33;;;;;;;;;;;24.40;50.30;;;;;;3055011;19;5204;-82
2023/08/30 00:09:35;;;;;;;;;;;24.40;50.30;;;;;;3055944;19;5172;-80
2023/08/30 00:10:37;;;;;;;;;;;24.50;50.50;;;;;;3055629;19;4553;-89
2023/08/30 00:11:38;;;;;;;;;;;24.30;50.30;;;;;;3055080;19;4558;-84
2023/08/30 00:12:39;;;;;;;;;;;24.30;50.30;;;;;;3054777;19;4730;-81
2023/08/30 00:13:40;;;;;;;;;;;24.40;50.30;;;;;;3055009;19;5204;-82
2023/08/30 00:14:41;;;;;;;;;;;24.40;50.30;;;;;;3055244;19;5078;-78
2023/08/30 00:15:42;;;;;;;;;;;24.30;50.50;;;;;;3053918;19;4598;-78
2023/08/30 00:16:42;;;;;;;;;;;24.30;50.40;;;;;;3055517;19;6298;-84
2023/08/30 00:17:45;;;;;;;;;;;24.30;50.30;;;;;;3054599;19;5050;-79
2023/08/30 00:18:45;;;;;;;;;;;24.30;50.30;;;;;;3054245;19;5281;-90
2023/08/30 00:19:48;;;;;;;;;;;24.30;50.30;;;;;;3055174;19;4625;-81
2023/08/30 00:20:48;;;;;;;;;;;24.30;50.30;;;;;;3055224;19;5729;-84
2023/08/30 00:21:49;;;;;;;;;;;24.30;50.40;;;;;;3055041;19;4616;-82
2023/08/30 00:22:50;;;;;;;;;;;24.30;50.50;;;;;;3054193;19;5192;-89
2023/08/30 00:23:52;;;;;;;;;;;24.30;50.60;;;;;;3054983;19;5338;-85
2023/08/30 00:24:53;;;;;;;;;;;24.30;50.40;;;;;;3055550;19;5094;-84
2023/08/30 00:25:53;;;;;;;;;;;24.30;50.50;;;;;;3055415;19;5064;-79
2023/08/30 00:26:55;;;;;;;;;;;24.30;50.50;;;;;;3054331;19;4737;-81
2023/08/30 00:27:56;;;;;;;;;;;24.30;50.60;;;;;;3054440;19;5205;-87
2023/08/30 00:28:56;;;;;;;;;;;24.30;50.40;;;;;;3056055;19;5159;-82
2023/08/30 00:29:58;;;;;;;;;;;24.30;50.60;;;;;;3051837;19;5075;-81
2023/08/30 00:30:59;;;;;;;;;;;24.30;50.60;;;;;;3054562;19;5034;-80
2023/08/30 00:31:59;;;;;;;;;;;23.80;50.90;;;;;;3054070;19;5047;-80
2023/08/30 00:33:00;;;;;;;;;;;24.30;50.60;;;;;;3054244;19;5204;-85
2023/08/30 00:34:01;;;;;;;;;;;24.30;50.60;;;;;;3055331;19;4980;-80
2023/08/30 00:35:01;;;;;;;;;;;24.30;50.50;;;;;;3033344;19;5261;-79
2023/08/30 00:36:02;;;;;;;;;;;24.30;50.50;;;;;;3054491;19;4573;-87
2023/08/30 00:37:03;;;;;;;;;;;24.30;50.60;;;;;;3053745;19;5068;-80
2023/08/30 00:38:03;;;;;;;;;;;24.30;50.50;;;;;;3054108;19;5592;-85
2023/08/30 00:39:04;;;;;;;;;;;24.30;50.60;;;;;;3055310;19;5058;-86
2023/08/30 00:40:06;;;;;;;;;;;24.30;50.60;;;;;;3055267;19;5314;-79
2023/08/30 00:41:07;;;;;;;;;;;24.30;50.60;;;;;;3054680;19;5268;-84
2023/08/30 00:42:07;;;;;;;;;;;24.30;50.50;;;;;;3053518;19;4760;-85
2023/08/30 00:43:08;;;;;;;;;;;24.30;50.50;;;;;;3054303;19;5151;-80
2023/08/30 00:44:08;;;;;;;;;;;24.30;50.60;;;;;;3054617;19;4603;-81
2023/08/30 00:45:09;;;;;;;;;;;24.20;50.60;;;;;;3054214;19;4659;-79
2023/08/30 00:46:10;;;;;;;;;;;24.30;50.70;;;;;;3054193;19;1177;-87
2023/08/30 00:47:10;;;;;;;;;;;24.20;50.60;;;;;;3052974;19;5026;-81
2023/08/30 00:48:11;;;;;;;;;;;24.20;50.50;;;;;;3053024;19;4606;-85
2023/08/30 00:49:12;;;;;;;;;;;24.20;50.70;;;;;;3054147;19;5196;-79
2023/08/30 00:50:13;;;;;;;;;;;24.20;50.70;;;;;;3032989;19;5289;-80
2023/08/30 00:51:13;;;;;;;;;;;24.20;50.70;;;;;;3054709;19;4620;-79
2023/08/30 00:52:14;;;;;;;;;;;24.20;50.70;;;;;;3053553;19;6114;-78
2023/08/30 00:53:15;;;;;;;;;;;24.20;50.60;;;;;;3053801;19;5066;-83
2023/08/30 00:54:16;;;;;;;;;;;24.20;50.70;;;;;;3054598;19;1061;-86
2023/08/30 00:55:16;;;;;;;;;;;24.20;50.90;;;;;;3055048;19;5659;-80
2023/08/30 00:56:17;;;;;;;;;;;24.20;50.70;;;;;;3058467;19;4618;-78
2023/08/30 00:57:17;;;;;;;;;;;24.20;50.70;;;;;;3057152;19;5169;-86
2023/08/30 00:58:18;;;;;;;;;;;24.20;50.80;;;;;;3055801;19;5207;-86
2023/08/30 00:59:19;;;;;;;;;;;24.20;50.80;;;;;;3055140;19;5404;-84
2023/08/30 01:00:19;;;;;;;;;;;24.20;50.70;;;;;;3055382;19;5187;-80
2023/08/30 01:04:07;;;;;;;;;;;24.20;50.80;;;;;;3047791;19;4883;-29
2023/08/30 01:05:09;;;;;;;;;;;24.20;50.60;;;;;;3052389;19;4823;-34
2023/08/30 01:06:10;;;;;;;;;;;24.20;50.80;;;;;;3052990;19;4691;-32
2023/08/30 01:07:10;;;;;;;;;;;24.20;50.80;;;;;;3052428;19;4661;-34
2023/08/30 01:08:11;;;;;;;;;;;24.20;50.90;;;;;;3052098;19;4653;-28
2023/08/30 01:09:12;;;;;;;;;;;24.20;50.70;;;;;;3052641;19;4843;-33
2023/08/30 01:10:13;;;;;;;;;;;24.20;50.70;;;;;;3052388;19;1853;-28
2023/08/30 01:11:32;;;;;;;;;;;24.20;50.80;;;;;;3052491;19;4658;-33
2023/08/30 01:12:40;;;;;;;;;;;24.10;50.80;;;;;;3053103;19;4665;-34
2023/08/30 01:13:44;;;;;;;;;;;24.10;50.80;;;;;;3052867;19;4735;-30
2023/08/30 01:15:20;;;;;;;;;;;24.10;50.90;;;;;;3052548;19;4646;-34
2023/08/30 01:16:23;;;;;;;;;;;24.10;50.80;;;;;;2948790;19;2004412;-33
2023/08/30 01:17:24;;;;;;;;;;;24.10;50.90;;;;;;3050272;19;4768;-33
2023/08/30 01:18:26;;;;;;;;;;;24.10;51.00;;;;;;3051882;19;4815;-29
2023/08/30 01:19:36;;;;;;;;;;;24.10;50.90;;;;;;3051937;19;4661;-30
2023/08/30 01:20:37;;;;;;;;;;;24.10;50.90;;;;;;3052425;19;4651;-34
2023/08/30 01:21:47;;;;;;;;;;;24.10;50.90;;;;;;3052967;19;4630;-35
2023/08/30 01:23:05;;;;;;;;;;;24.10;51.10;;;;;;3053161;19;4677;-31
2023/08/30 01:24:07;;;;;;;;;;;24.10;51.00;;;;;;3051202;19;4595;-28
2023/08/30 01:25:19;;;;;;;;;;;24.10;50.80;;;;;;3051064;19;4686;-30
2023/08/30 01:26:24;;;;;;;;;;;24.10;50.80;;;;;;3050170;19;4694;-33
2023/08/30 01:27:25;;;;;;;;;;;24.10;51.00;;;;;;3052238;19;4677;-34
2023/08/30 01:28:26;;;;;;;;;;;24.10;51.10;;;;;;3051666;19;4792;-33
2023/08/30 01:29:27;;;;;;;;;;;24.60;51.20;;;;;;3052247;19;4698;-31
2023/08/30 01:30:27;;;;;;;;;;;24.10;50.90;;;;;;3051197;19;4801;-33
2023/08/30 01:31:30;;;;;;;;;;;24.10;51.10;;;;;;3051242;19;4692;-31
2023/08/30 01:32:30;;;;;;;;;;;24.10;50.90;;;;;;3051861;19;4646;-34
2023/08/30 01:33:31;;;;;;;;;;;24.10;50.80;;;;;;3051834;19;4685;-34
2023/08/30 01:34:32;;;;;;;;;;;24.10;51.00;;;;;;3052324;19;4721;-26
2023/08/30 01:35:35;;;;;;;;;;;24.10;51.00;;;;;;3052697;19;4646;-26
2023/08/30 01:36:36;;;;;;;;;;;24.10;51.10;;;;;;3051323;19;4686;-26
2023/08/30 01:37:36;;;;;;;;;;;24.10;51.00;;;;;;3052016;19;4670;-27
2023/08/30 01:38:37;;;;;;;;;;;24.10;51.10;;;;;;3051708;19;4630;-27
2023/08/30 01:39:37;;;;;;;;;;;24.10;50.90;;;;;;3053283;19;4674;-27
2023/08/30 01:40:39;;;;;;;;;;;24.10;51.00;;;;;;3052203;19;4726;-26
2023/08/30 01:41:40;;;;;;;;;;;24.10;51.00;;;;;;3052451;19;4745;-27
2023/08/30 01:42:40;;;;;;;;;;;24.10;51.00;;;;;;3051438;19;4628;-27
2023/08/30 01:43:42;;;;;;;;;;;24.10;51.10;;;;;;3052920;19;4769;-29
2023/08/30 01:44:44;;;;;;;;;;;24.10;51.10;;;;;;3051396;19;4664;-27
2023/08/30 01:45:46;;;;;;;;;;;24.10;51.10;;;;;;3050631;19;4603;-26
2023/08/30 01:46:46;;;;;;;;;;;24.10;51.20;;;;;;3052400;19;4744;-30
2023/08/30 01:47:48;;;;;;;;;;;24.10;51.20;;;;;;3052324;19;4771;-27
2023/08/30 01:48:50;;;;;;;;;;;24.00;51.10;;;;;;3051533;19;4688;-26
2023/08/30 01:49:53;;;;;;;;;;;24.10;51.10;;;;;;3052869;19;4757;-27
2023/08/30 01:50:58;;;;;;;;;;;24.00;51.00;;;;;;3053235;19;4635;-27
2023/08/30 01:52:00;;;;;;;;;;;24.00;51.10;;;;;;3052561;19;4664;-27
2023/08/30 01:53:01;;;;;;;;;;;24.10;51.20;;;;;;3051905;19;4695;-27
2023/08/30 01:54:01;;;;;;;;;;;24.00;51.70;;;;;;3052539;19;4663;-24
2023/08/30 01:55:02;;;;;;;;;;;24.10;51.70;;;;;;3051750;19;4606;-29
2023/08/30 01:56:03;;;;;;;;;;;24.00;51.00;;;;;;3051484;19;4763;-28
2023/08/30 01:57:04;;;;;;;;;;;24.00;51.00;;;;;;3050850;19;4592;-28
2023/08/30 01:58:05;;;;;;;;;;;24.00;51.00;;;;;;3052167;19;4564;-27
2023/08/30 01:59:06;;;;;;;;;;;24.00;51.00;;;;;;3052555;19;4454;-30
2023/08/30 02:00:07;;;;;;;;;;;24.00;51.00;;;;;;3050941;19;4748;-26
2023/08/30 02:01:08;;;;;;;;;;;24.00;51.00;;;;;;3050727;19;4683;-26
2023/08/30 02:02:08;;;;;;;;;;;24.00;51.00;;;;;;3050622;19;4664;-25
2023/08/30 02:03:13;;;;;;;;;;;24.00;51.00;;;;;;3052546;19;4630;-30
2023/08/30 02:04:13;;;;;;;;;;;24.00;51.00;;;;;;3055263;19;4655;-28
2023/08/30 02:05:14;;;;;;;;;;;24.00;51.00;;;;;;3056666;19;4659;-29
2023/08/30 02:06:39;;;;;;;;;;;24.00;51.10;;;;;;3056068;19;4682;-27
2023/08/30 02:07:56;;;;;;;;;;;24.00;51.00;;;;;;3055560;19;4639;-26
2023/08/30 02:09:19;;;;;;;;;;;24.00;51.00;;;;;;3055983;19;4780;-28
2023/08/30 02:10:31;;;;;;;;;;;24.00;51.10;;;;;;2951932;19;2010703;-25
2023/08/30 02:11:32;;;;;;;;;;;24.00;51.10;;;;;;3054526;19;4652;-31
2023/08/30 02:12:49;;;;;;;;;;;24.00;51.10;;;;;;3055844;19;4655;-25
2023/08/30 02:13:50;;;;;;;;;;;24.00;51.10;;;;;;3054997;19;4660;-29
2023/08/30 02:14:50;;;;;;;;;;;24.00;51.20;;;;;;3055120;19;4600;-26
2023/08/30 02:15:51;;;;;;;;;;;24.00;51.10;;;;;;3052080;19;4673;-27
2023/08/30 02:16:53;;;;;;;;;;;23.90;51.10;;;;;;3052622;19;4599;-26
2023/08/30 02:17:53;;;;;;;;;;;23.90;51.10;;;;;;3055380;19;4639;-25
2023/08/30 02:18:54;;;;;;;;;;;24.00;51.00;;;;;;3054359;19;4696;-27
2023/08/30 02:19:55;;;;;;;;;;;24.00;51.10;;;;;;3055207;19;4611;-28
2023/08/30 02:20:56;;;;;;;;;;;24.00;51.10;;;;;;3053837;19;4608;-25
2023/08/30 02:21:57;;;;;;;;;;;24.00;51.10;;;;;;3055925;19;4594;-26
2023/08/30 02:22:59;;;;;;;;;;;24.00;51.20;;;;;;3054790;19;4839;-25
2023/08/30 02:23:59;;;;;;;;;;;23.90;51.10;;;;;;3053824;19;4614;-26
2023/08/30 02:25:04;;;;;;;;;;;23.90;51.10;;;;;;3055679;19;4648;-27
2023/08/30 02:26:05;;;;;;;;;;;23.90;51.10;;;;;;3055016;19;4831;-27
2023/08/30 02:27:06;;;;;;;;;;;23.90;51.40;;;;;;3055055;19;4580;-26
2023/08/30 02:28:06;;;;;;;;;;;23.90;51.20;;;;;;3055812;19;4673;-28
2023/08/30 02:29:08;;;;;;;;;;;23.90;51.10;;;;;;3053977;19;984;-27
2023/08/30 02:30:08;;;;;;;;;;;23.90;51.10;;;;;;3053292;19;4627;-29
2023/08/30 02:31:09;;;;;;;;;;;23.90;51.20;;;;;;3055053;19;4614;-26
2023/08/30 02:32:10;;;;;;;;;;;23.90;51.10;;;;;;3054935;19;4711;-27
2023/08/30 02:33:10;;;;;;;;;;;23.90;51.20;;;;;;3054287;19;4817;-27
2023/08/30 02:34:11;;;;;;;;;;;23.90;51.00;;;;;;3055803;19;4661;-28
2023/08/30 02:35:12;;;;;;;;;;;23.90;51.10;;;;;;3054987;19;4618;-27
2023/08/30 02:36:12;;;;;;;;;;;23.90;51.20;;;;;;3054916;19;4752;-28
2023/08/30 02:37:13;;;;;;;;;;;23.90;51.20;;;;;;3055393;19;1085;-26
2023/08/30 02:38:13;;;;;;;;;;;23.90;51.10;;;;;;3054629;19;4593;-26
2023/08/30 02:39:15;;;;;;;;;;;23.90;51.10;;;;;;3054347;19;4724;-27
2023/08/30 02:40:15;;;;;;;;;;;23.90;51.10;;;;;;3055809;19;4670;-26
2023/08/30 02:41:16;;;;;;;;;;;23.90;51.20;;;;;;3052094;19;4684;-25
2023/08/30 02:42:16;;;;;;;;;;;23.90;51.10;;;;;;3054090;19;4668;-27
2023/08/30 02:43:17;;;;;;;;;;;23.90;51.20;;;;;;3055779;19;4693;-27
2023/08/30 02:44:18;;;;;;;;;;;23.90;51.20;;;;;;3055108;19;4629;-31
2023/08/30 02:45:18;;;;;;;;;;;23.90;51.20;;;;;;3054497;19;4675;-28
2023/08/30 02:46:19;;;;;;;;;;;23.90;51.20;;;;;;3053264;19;4655;-29
2023/08/30 02:47:19;;;;;;;;;;;23.90;51.30;;;;;;3055499;19;4625;-27
2023/08/30 02:48:20;;;;;;;;;;;23.90;51.40;;;;;;3054984;19;4796;-31
2023/08/30 02:49:21;;;;;;;;;;;23.90;51.30;;;;;;3055512;19;4573;-25
2023/08/30 02:50:21;;;;;;;;;;;23.90;51.30;;;;;;3054580;19;4758;-28
2023/08/30 02:51:22;;;;;;;;;;;23.90;51.20;;;;;;3055049;19;4627;-28
2023/08/30 02:52:23;;;;;;;;;;;23.90;51.30;;;;;;3055554;19;4616;-26
2023/08/30 02:53:24;;;;;;;;;;;23.90;51.20;;;;;;3054391;19;4642;-25
2023/08/30 02:54:24;;;;;;;;;;;23.90;51.10;;;;;;3054813;19;4646;-27
2023/08/30 02:55:25;;;;;;;;;;;23.90;51.30;;;;;;3055707;19;4635;-29
2023/08/30 02:56:26;;;;;;;;;;;23.90;51.30;;;;;;3053642;19;4749;-25
2023/08/30 02:57:26;;;;;;;;;;;23.90;51.30;;;;;;3055476;19;4593;-26
2023/08/30 02:58:27;;;;;;;;;;;23.90;51.50;;;;;;3055183;19;4687;-27
2023/08/30 02:59:27;;;;;;;;;;;23.90;51.40;;;;;;3054758;19;4686;-26
2023/08/30 03:00:28;;;;;;;;;;;23.90;51.40;;;;;;3053399;19;4689;-28
2023/08/30 03:01:29;;;;;;;;;;;23.80;51.30;;;;;;3054897;19;4758;-29
2023/08/30 03:02:29;;;;;;;;;;;23.90;51.90;;;;;;3055131;19;4827;-25
2023/08/30 03:03:30;;;;;;;;;;;23.80;51.30;;;;;;3052903;19;4660;-26
2023/08/30 03:04:31;;;;;;;;;;;23.80;51.30;;;;;;3054677;19;4628;-26
2023/08/30 03:05:31;;;;;;;;;;;23.90;51.30;;;;;;3053685;19;4663;-29
2023/08/30 03:06:32;;;;;;;;;;;23.80;51.20;;;;;;3055199;19;4646;-26
2023/08/30 03:07:33;;;;;;;;;;;23.90;51.40;;;;;;3054937;19;4666;-25
2023/08/30 03:08:33;;;;;;;;;;;23.80;51.40;;;;;;3054856;19;4701;-28
2023/08/30 03:09:34;;;;;;;;;;;23.80;51.10;;;;;;3053556;19;4665;-25
2023/08/30 03:10:35;;;;;;;;;;;23.80;51.40;;;;;;3054230;19;4779;-27
2023/08/30 03:11:35;;;;;;;;;;;23.80;51.20;;;;;;3054945;19;4718;-30
2023/08/30 03:12:36;;;;;;;;;;;23.80;51.30;;;;;;3055448;19;4656;-29
2023/08/30 03:13:37;;;;;;;;;;;23.80;51.50;;;;;;3054706;19;4803;-29
2023/08/30 03:14:37;;;;;;;;;;;23.80;51.30;;;;;;3053919;19;4999;-27
2023/08/30 03:15:38;;;;;;;;;;;23.80;51.30;;;;;;3054637;19;4662;-26
2023/08/30 03:16:39;;;;;;;;;;;23.80;51.40;;;;;;3055562;19;4843;-27
2023/08/30 03:17:39;;;;;;;;;;;23.80;51.20;;;;;;3054640;19;4652;-28
2023/08/30 03:18:40;;;;;;;;;;;23.80;51.40;;;;;;3054162;19;4667;-27
2023/08/30 03:19:41;;;;;;;;;;;23.80;51.30;;;;;;3053193;19;4658;-26
2023/08/30 03:20:41;;;;;;;;;;;23.80;51.30;;;;;;3053217;19;4818;-25
2023/08/30 03:21:42;;;;;;;;;;;23.80;51.40;;;;;;3054761;19;4553;-30
2023/08/30 03:22:42;;;;;;;;;;;23.80;51.40;;;;;;3055261;19;4627;-28
2023/08/30 03:23:43;;;;;;;;;;;23.80;51.30;;;;;;3054724;19;4577;-26
2023/08/30 03:24:44;;;;;;;;;;;23.80;51.20;;;;;;3054650;19;4803;-28
2023/08/30 03:25:44;;;;;;;;;;;23.80;51.30;;;;;;3056077;19;4665;-25
2023/08/30 03:26:45;;;;;;;;;;;23.80;51.40;;;;;;3055552;19;4695;-27
2023/08/30 03:27:46;;;;;;;;;;;23.80;51.50;;;;;;3055175;19;4655;-28
2023/08/30 03:28:46;;;;;;;;;;;23.70;51.30;;;;;;3055460;19;4652;-28
2023/08/30 03:29:47;;;;;;;;;;;23.80;51.30;;;;;;3054589;19;4752;-27
2023/08/30 03:30:48;;;;;;;;;;;23.80;51.40;;;;;;3054452;19;4684;-25
2023/08/30 03:31:48;;;;;;;;;;;23.80;51.40;;;;;;3054805;19;4656;-29
2023/08/30 03:32:49;;;;;;;;;;;23.80;51.40;;;;;;3055326;19;4831;-25
2023/08/30 03:33:49;;;;;;;;;;;23.80;51.50;;;;;;3054215;19;4736;-26
2023/08/30 03:34:50;;;;;;;;;;;23.70;51.40;;;;;;3055080;19;4601;-28
2023/08/30 03:35:51;;;;;;;;;;;23.70;51.50;;;;;;3055113;19;4671;-29
2023/08/30 03:36:54;;;;;;;;;;;23.70;51.40;;;;;;3055109;19;4592;-31
2023/08/30 03:37:54;;;;;;;;;;;23.70;51.40;;;;;;3054783;19;4610;-27
2023/08/30 03:38:55;;;;;;;;;;;23.70;51.40;;;;;;3054928;19;4705;-28
2023/08/30 03:39:55;;;;;;;;;;;23.70;51.30;;;;;;3053817;19;4622;-27
2023/08/30 03:40:56;;;;;;;;;;;23.70;51.40;;;;;;3054713;19;4734;-27
2023/08/30 03:41:57;;;;;;;;;;;23.70;51.40;;;;;;3054603;19;4572;-25
2023/08/30 03:42:57;;;;;;;;;;;23.70;51.70;;;;;;3055221;19;4609;-26
2023/08/30 03:43:58;;;;;;;;;;;23.80;51.70;;;;;;3054201;19;4606;-27
2023/08/30 03:44:58;;;;;;;;;;;23.90;51.70;;;;;;3055128;19;4619;-29
2023/08/30 03:45:59;;;;;;;;;;;23.90;51.50;;;;;;3054770;19;4645;-27
2023/08/30 03:47:00;;;;;;;;;;;24.00;51.40;;;;;;3055217;19;4600;-34
2023/08/30 03:48:01;;;;;;;;;;;24.00;51.50;;;;;;3055013;19;4596;-34
2023/08/30 03:49:01;;;;;;;;;;;24.00;51.40;;;;;;3054687;19;4739;-34
2023/08/30 03:50:02;;;;;;;;;;;23.50;51.10;;;;;;3052378;19;4593;-34
2023/08/30 03:51:03;;;;;;;;;;;24.10;51.50;;;;;;3054864;19;4631;-34
2023/08/30 03:52:04;;;;;;;;;;;24.10;51.50;;;;;;3055039;19;4600;-33
2023/08/30 03:53:05;;;;;;;;;;;24.10;51.30;;;;;;3055078;19;4528;-35
2023/08/30 03:54:05;;;;;;;;;;;24.10;51.00;;;;;;3054417;19;19986;-35
2023/08/30 03:55:06;;;;;;;;;;;24.10;51.20;;;;;;3054933;19;4442;-33
2023/08/30 03:56:07;;;;;;;;;;;24.10;51.20;;;;;;3053995;19;4887;-31
2023/08/30 03:57:08;;;;;;;;;;;24.10;51.30;;;;;;3054425;19;4628;-34
2023/08/30 03:58:08;;;;;;;;;;;24.10;51.30;;;;;;3054916;19;870;-31
2023/08/30 03:59:09;;;;;;;;;;;24.10;51.20;;;;;;3052975;19;4567;-32
2023/08/30 04:00:11;;;;;;;;;;;24.10;51.20;;;;;;3053569;19;4815;-32
2023/08/30 04:01:11;;;;;;;;;;;24.10;51.30;;;;;;3053386;19;4799;-32
2023/08/30 04:02:12;;;;;;;;;;;24.10;51.30;;;;;;3055070;19;4726;-32
2023/08/30 04:03:13;;;;;;;;;;;24.10;51.20;;;;;;3052889;19;4636;-32
2023/08/30 04:04:14;;;;;;;;;;;24.10;51.50;;;;;;3053778;19;4651;-33
2023/08/30 04:05:15;;;;;;;;;;;24.10;51.40;;;;;;3052962;19;4736;-34
2023/08/30 04:06:15;;;;;;;;;;;24.00;51.40;;;;;;3054407;19;925;-33
2023/08/30 04:07:16;;;;;;;;;;;24.10;51.60;;;;;;3053056;19;20665;-31
2023/08/30 04:08:17;;;;;;;;;;;24.10;51.40;;;;;;3053765;19;4875;-32
2023/08/30 04:09:17;;;;;;;;;;;24.10;51.80;;;;;;3054254;19;4644;-34
2023/08/30 04:10:18;;;;;;;;;;;24.10;51.40;;;;;;3053925;19;4694;-33
2023/08/30 04:11:19;;;;;;;;;;;24.10;51.70;;;;;;3054278;19;4677;-33
2023/08/30 04:12:19;;;;;;;;;;;24.10;52.30;;;;;;3054475;19;4679;-34
2023/08/30 04:13:20;;;;;;;;;;;24.10;52.00;;;;;;3053535;19;4666;-33
2023/08/30 04:14:21;;;;;;;;;;;24.10;51.70;;;;;;3054520;19;4658;-31
2023/08/30 04:15:21;;;;;;;;;;;24.20;51.70;;;;;;3053115;19;4609;-30
2023/08/30 04:16:22;;;;;;;;;;;24.20;51.40;;;;;;3054401;19;4615;-34
2023/08/30 04:17:23;;;;;;;;;;;24.20;51.20;;;;;;3053722;19;4717;-31
2023/08/30 04:18:24;;;;;;;;;;;24.20;50.90;;;;;;3054128;19;4803;-34
2023/08/30 04:19:24;;;;;;;;;;;24.20;51.20;;;;;;3054563;19;4805;-31
2023/08/30 04:20:25;;;;;;;;;;;24.20;51.10;;;;;;3052552;19;4660;-30
2023/08/30 04:21:26;;;;;;;;;;;24.20;51.30;;;;;;3054452;19;4818;-32
2023/08/30 04:22:26;;;;;;;;;;;24.20;51.10;;;;;;3052921;19;4645;-33
2023/08/30 04:23:27;;;;;;;;;;;24.20;51.10;;;;;;3054101;19;4772;-31
2023/08/30 04:24:28;;;;;;;;;;;24.20;51.20;;;;;;3053705;19;4615;-31
2023/08/30 04:25:29;;;;;;;;;;;24.20;51.30;;;;;;3054862;19;4577;-34
2023/08/30 04:26:29;;;;;;;;;;;24.20;51.10;;;;;;3052836;19;4833;-33
2023/08/30 04:27:30;;;;;;;;;;;24.20;51.30;;;;;;3054371;19;4644;-32
2023/08/30 04:28:31;;;;;;;;;;;24.20;51.20;;;;;;3053448;19;4588;-29
2023/08/30 04:29:31;;;;;;;;;;;24.20;51.20;;;;;;3052758;19;4891;-34
2023/08/30 04:30:33;;;;;;;;;;;24.10;51.00;;;;;;3052162;19;4743;-34
2023/08/30 04:31:33;;;;;;;;;;;24.20;51.20;;;;;;3053401;19;4802;-34
2023/08/30 04:32:34;;;;;;;;;;;24.10;51.20;;;;;;3054500;19;4640;-31
2023/08/30 04:33:35;;;;;;;;;;;24.20;51.30;;;;;;3053507;19;4692;-34
2023/08/30 04:34:36;;;;;;;;;;;24.10;51.20;;;;;;3053688;19;4640;-34
2023/08/30 04:35:37;;;;;;;;;;;24.20;51.50;;;;;;3053308;19;4675;-33
2023/08/30 04:36:37;;;;;;;;;;;24.20;51.60;;;;;;3053493;19;4610;-27
2023/08/30 04:37:39;;;;;;;;;;;24.20;51.30;;;;;;3054197;19;4636;-26
2023/08/30 04:38:39;;;;;;;;;;;24.20;51.30;;;;;;3053623;19;4798;-27
2023/08/30 04:39:40;;;;;;;;;;;24.10;51.20;;;;;;3052814;19;4760;-30
2023/08/30 04:40:41;;;;;;;;;;;24.10;51.20;;;;;;3052355;19;4773;-28
2023/08/30 04:41:41;;;;;;;;;;;24.10;51.30;;;;;;3054781;19;4748;-30
2023/08/30 04:42:42;;;;;;;;;;;24.10;51.20;;;;;;3054457;19;4631;-30
2023/08/30 04:43:43;;;;;;;;;;;24.10;51.20;;;;;;3051871;19;4640;-27
2023/08/30 04:44:44;;;;;;;;;;;24.10;51.60;;;;;;3054017;19;4707;-25
2023/08/30 04:45:47;;;;;;;;;;;24.20;52.10;;;;;;3054446;19;4654;-28
2023/08/30 04:46:48;;;;;;;;;;;24.30;51.40;;;;;;3053673;19;4656;-29
2023/08/30 04:47:49;;;;;;;;;;;24.30;51.00;;;;;;3053088;19;4766;-27
2023/08/30 04:48:49;;;;;;;;;;;24.70;51.60;;;;;;3050762;19;4613;-28
2023/08/30 04:49:51;;;;;;;;;;;24.30;51.30;;;;;;3054313;19;4682;-28
2023/08/30 04:50:59;;;;;;;;;;;24.30;50.90;;;;;;3052628;19;4631;-27
2023/08/30 04:52:00;;;;;;;;;;;24.30;51.30;;;;;;3051867;19;4574;-25
2023/08/30 04:53:00;;;;;;;;;;;24.30;51.10;;;;;;3050234;19;4667;-27
2023/08/30 04:54:01;;;;;;;;;;;24.30;51.00;;;;;;3052525;19;4562;-30
2023/08/30 04:55:02;;;;;;;;;;;24.30;51.30;;;;;;3052929;19;4560;-26
2023/08/30 04:56:13;;;;;;;;;;;24.30;50.80;;;;;;3052839;19;4748;-27
2023/08/30 04:57:14;;;;;;;;;;;24.30;50.80;;;;;;3053701;19;4611;-25
2023/08/30 04:58:15;;;;;;;;;;;24.30;51.00;;;;;;3054216;19;4632;-27
2023/08/30 04:59:15;;;;;;;;;;;24.30;50.70;;;;;;3050949;19;4717;-26
2023/08/30 05:00:17;;;;;;;;;;;24.30;50.70;;;;;;3053568;19;4553;-25
2023/08/30 05:01:17;;;;;;;;;;;24.30;50.80;;;;;;3051719;19;4662;-26
2023/08/30 05:02:18;;;;;;;;;;;24.30;50.80;;;;;;3052919;19;4657;-29
2023/08/30 05:03:19;;;;;;;;;;;24.20;50.60;;;;;;3053030;19;4757;-25
2023/08/30 05:04:19;;;;;;;;;;;24.30;50.60;;;;;;3050277;19;4635;-26
2023/08/30 05:05:20;;;;;;;;;;;24.20;50.60;;;;;;3052393;19;4638;-28
2023/08/30 05:06:20;;;;;;;;;;;24.20;50.80;;;;;;3050768;19;4759;-28
2023/08/30 05:07:21;;;;;;;;;;;24.20;50.60;;;;;;3052129;19;4838;-26
2023/08/30 05:08:22;;;;;;;;;;;24.20;50.70;;;;;;3053801;19;4693;-27
2023/08/30 05:09:24;;;;;;;;;;;24.20;50.70;;;;;;3053693;19;4642;-27
2023/08/30 05:10:25;;;;;;;;;;;24.10;50.80;;;;;;3051541;19;4800;-27
2023/08/30 05:11:26;;;;;;;;;;;24.20;51.00;;;;;;3051004;19;4762;-26
2023/08/30 05:12:26;;;;;;;;;;;24.20;50.90;;;;;;3050868;19;4625;-26
2023/08/30 05:13:27;;;;;;;;;;;24.20;50.90;;;;;;3053225;19;4638;-27
2023/08/30 05:14:27;;;;;;;;;;;24.20;50.80;;;;;;3053129;19;4685;-25
2023/08/30 05:15:28;;;;;;;;;;;24.20;50.90;;;;;;3050582;19;4644;-29
2023/08/30 05:16:29;;;;;;;;;;;24.20;50.80;;;;;;3051503;19;4893;-28
2023/08/30 05:17:29;;;;;;;;;;;24.20;50.80;;;;;;3051188;19;4694;-26
2023/08/30 05:18:30;;;;;;;;;;;24.20;51.10;;;;;;3053089;19;4818;-28
2023/08/30 05:19:31;;;;;;;;;;;24.20;51.30;;;;;;3048481;19;4955;-26
2023/08/30 05:20:31;;;;;;;;;;;24.30;51.90;;;;;;3050923;19;4990;-26
2023/08/30 05:21:32;;;;;;;;;;;24.30;51.20;;;;;;3050768;19;4632;-26
2023/08/30 05:22:33;;;;;;;;;;;24.30;50.90;;;;;;3051690;19;4661;-29
2023/08/30 05:23:33;;;;;;;;;;;24.40;51.00;;;;;;3053117;19;4610;-26
2023/08/30 05:24:34;;;;;;;;;;;24.40;51.00;;;;;;3051983;19;4671;-28
2023/08/30 05:25:34;;;;;;;;;;;24.40;50.80;;;;;;3051710;19;4636;-25
2023/08/30 05:26:35;;;;;;;;;;;24.40;51.10;;;;;;3050625;19;4663;-27
2023/08/30 05:27:36;;;;;;;;;;;24.40;50.80;;;;;;3053995;19;4634;-30
2023/08/30 05:28:36;;;;;;;;;;;24.40;50.90;;;;;;3053928;19;4672;-27
2023/08/30 05:29:37;;;;;;;;;;;24.30;50.90;;;;;;3053585;19;4690;-27
2023/08/30 05:30:42;;;;;;;;;;;24.40;51.10;;;;;;3051559;19;4740;-27
2023/08/30 05:31:43;;;;;;;;;;;24.40;51.40;;;;;;3052275;19;4639;-29
2023/08/30 05:32:44;;;;;;;;;;;24.40;50.80;;;;;;3053685;19;4682;-27
2023/08/30 05:33:44;;;;;;;;;;;24.40;50.90;;;;;;3052061;19;4697;-28
2023/08/30 05:34:45;;;;;;;;;;;24.40;51.10;;;;;;3050439;19;4804;-28
2023/08/30 05:35:46;;;;;;;;;;;24.40;51.10;;;;;;3052413;19;4656;-25
2023/08/30 05:36:46;;;;;;;;;;;24.40;51.30;;;;;;3051970;19;4831;-27
2023/08/30 05:37:47;;;;;;;;;;;24.40;51.10;;;;;;3053318;19;4737;-28
2023/08/30 05:38:47;;;;;;;;;;;24.40;51.10;;;;;;3054350;19;4842;-26
2023/08/30 05:39:48;;;;;;;;;;;24.40;51.00;;;;;;3053938;19;4722;-26
2023/08/30 05:40:49;;;;;;;;;;;24.30;51.80;;;;;;3054599;19;4682;-25
2023/08/30 05:41:49;;;;;;;;;;;24.30;51.10;;;;;;3055357;19;4702;-26
2023/08/30 05:42:50;;;;;;;;;;;24.30;51.00;;;;;;3054303;19;4696;-24
2023/08/30 05:43:51;;;;;;;;;;;24.30;51.10;;;;;;3056056;19;4580;-27
2023/08/30 05:44:53;;;;;;;;;;;24.30;51.10;;;;;;3056385;19;4638;-26
2023/08/30 05:45:53;;;;;;;;;;;24.30;51.10;;;;;;3055708;19;4608;-28
2023/08/30 05:46:54;;;;;;;;;;;24.30;51.10;;;;;;3054667;19;4625;-30
2023/08/30 05:47:55;;;;;;;;;;;24.30;51.20;;;;;;3054358;19;4590;-32
2023/08/30 05:48:55;;;;;;;;;;;24.30;50.90;;;;;;3055807;19;4620;-34
2023/08/30 05:49:56;;;;;;;;;;;24.30;50.90;;;;;;3054547;19;4625;-33
2023/08/30 05:50:57;;;;;;;;;;;24.30;51.00;;;;;;3054013;19;4678;-33
2023/08/30 05:51:57;;;;;;;;;;;24.30;51.00;;;;;;3056244;19;4617;-31
2023/08/30 05:52:58;;;;;;;;;;;24.30;51.00;;;;;;3054198;19;4685;-30
2023/08/30 05:53:59;;;;;;;;;;;24.30;50.90;;;;;;3053303;19;4615;-31
2023/08/30 05:55:00;;;;;;;;;;;24.30;51.10;;;;;;3054181;19;4657;-35
2023/08/30 05:56:01;;;;;;;;;;;24.30;51.20;;;;;;3055379;19;4695;-31
2023/08/30 05:57:01;;;;;;;;;;;24.30;51.00;;;;;;3053385;19;4567;-32
2023/08/30 05:58:03;;;;;;;;;;;24.30;51.80;;;;;;3053889;19;4631;-36
2023/08/30 05:59:03;;;;;;;;;;;24.30;51.00;;;;;;3052318;19;4652;-35
2023/08/30 06:00:05;;;;;;;;;;;24.30;50.90;;;;;;3052450;19;4608;-31
2023/08/30 06:01:08;;;;;;;;;;;24.20;50.90;;;;;;3052269;19;4567;-34
2023/08/30 06:02:10;;;;;;;;;;;24.10;49.60;;;;;;3053507;19;4594;-32
2023/08/30 06:03:10;;;;;;;;;;;24.10;49.60;;;;;;3054499;19;4673;-31
2023/08/30 06:04:11;;;;;;;;;;;24.10;49.10;;;;;;3054380;19;4649;-32
2023/08/30 06:05:12;;;;;;;;;;;24.00;48.90;;;;;;3054708;19;4747;-32
2023/08/30 06:06:13;;;;;;;;;;;24.00;49.50;;;;;;3054143;19;870;-33